createdAt,value
2022-08-05T00:00:46.312Z,97349.13
2022-08-05T00:03:18.549Z,97347.63
2022-08-05T00:06:05.165Z,97350.78
2022-08-05T00:08:36.305Z,97347.88
2022-08-05T00:11:20.739Z,97346.09
2022-08-05T00:13:57.356Z,97338.91
2022-08-05T00:16:35.431Z,97345.19
2022-08-05T00:19:05.455Z,97338.31
2022-08-05T00:21:35.956Z,97348.59
2022-08-05T00:24:10.286Z,97345.63
2022-08-05T00:26:46.736Z,97344.78
2022-08-05T00:29:22.417Z,97344.47
2022-08-05T00:32:12.532Z,97336.00
2022-08-05T00:35:04.825Z,97335.69
2022-08-05T00:37:51.176Z,97339.06
2022-08-05T00:40:27.221Z,97329.31
2022-08-05T00:42:59.317Z,97331.63
2022-08-05T00:45:37.960Z,97336.31
2022-08-05T00:48:09.397Z,97328.16
2022-08-05T00:50:39.122Z,97328.59
2022-08-05T00:54:00.765Z,97326.63
2022-08-05T00:55:58.712Z,97324.53
2022-08-05T00:58:28.313Z,97327.25
2022-08-05T01:00:57.132Z,97323.97
2022-08-05T01:03:31.079Z,97317.94
2022-08-05T01:06:05.368Z,97320.41
2022-08-05T01:08:42.985Z,97311.34
2022-08-05T01:11:22.629Z,97313.25
2022-08-05T01:14:01.898Z,97316.44
2022-08-05T01:16:34.409Z,97314.03
2022-08-05T01:19:14.357Z,97318.28
2022-08-05T01:22:15.398Z,97317.44
2022-08-05T01:24:56.960Z,97312.00
2022-08-05T01:27:40.984Z,97318.00
2022-08-05T01:30:34.323Z,97315.75
2022-08-05T01:33:06.083Z,97311.56
2022-08-05T01:35:52.192Z,97317.22
2022-08-05T01:38:26.905Z,97315.75
2022-08-05T01:40:57.027Z,97306.75
2022-08-05T01:43:27.214Z,97311.34
2022-08-05T01:45:57.134Z,97307.25
2022-08-05T01:48:26.451Z,97312.81
2022-08-05T01:50:56.619Z,97298.69
2022-08-05T01:53:57.448Z,97299.03
2022-08-05T01:58:09.366Z,97304.53
2022-08-05T01:59:08.081Z,97297.38
2022-08-05T02:01:40.143Z,97302.56
2022-08-05T02:04:10.338Z,97300.03
2022-08-05T02:06:39.365Z,97296.72
2022-08-05T02:09:08.371Z,97291.22
2022-08-05T02:11:48.068Z,97299.78
2022-08-05T02:14:28.826Z,97286.44
2022-08-05T02:17:05.502Z,97289.81
2022-08-05T02:19:42.678Z,97292.25
2022-08-05T02:22:25.717Z,97289.91
2022-08-05T02:24:57.783Z,97293.88
2022-08-05T02:27:30.261Z,97283.78
2022-08-05T02:30:18.871Z,97281.34
2022-08-05T02:32:50.758Z,97284.13
2022-08-05T02:35:27.643Z,97274.59
2022-08-05T02:37:58.970Z,97271.31
2022-08-05T02:40:29.037Z,97274.44
2022-08-05T02:42:57.954Z,97274.13
2022-08-05T02:45:51.500Z,97273.91
2022-08-05T02:48:17.906Z,97266.16
2022-08-05T02:50:50.515Z,97272.84
2022-08-05T02:53:20.907Z,97277.09
2022-08-05T02:55:55.079Z,97271.63
2022-08-05T02:58:30.584Z,97271.84
2022-08-05T03:01:02.453Z,97271.13
2022-08-05T03:03:33.747Z,97270.75
2022-08-05T03:06:54.059Z,97273.56
2022-08-05T03:09:09.585Z,97276.19
2022-08-05T03:11:55.034Z,97280.19
2022-08-05T03:14:26.810Z,97274.25
2022-08-05T03:16:56.416Z,97277.81
2022-08-05T03:19:34.183Z,97277.38
2022-08-05T03:22:04.892Z,97275.91
2022-08-05T03:24:44.760Z,97271.09
2022-08-05T03:27:48.604Z,97265.50
2022-08-05T03:30:21.865Z,97262.38
2022-08-05T03:33:05.830Z,97262.38
2022-08-05T03:35:41.079Z,97268.63
2022-08-05T03:38:14.316Z,97262.00
2022-08-05T03:40:45.360Z,97267.25
2022-08-05T03:44:08.123Z,97264.75
2022-08-05T03:46:08.274Z,97264.00
2022-08-05T03:48:38.327Z,97261.94
2022-08-05T03:52:48.982Z,97267.28
2022-08-05T03:55:34.326Z,97265.84
2022-08-05T03:56:55.173Z,97266.53
2022-08-05T03:59:47.374Z,97266.81
2022-08-05T04:02:38.993Z,97268.44
2022-08-05T04:05:13.940Z,97270.19
2022-08-05T04:07:57.192Z,97261.19
2022-08-05T04:10:28.321Z,97265.94
2022-08-05T04:13:00.570Z,97265.44
2022-08-05T04:15:36.229Z,97257.66
2022-08-05T04:18:07.191Z,97269.28
2022-08-05T04:20:37.870Z,97264.75
2022-08-05T04:23:12.320Z,97271.91
2022-08-05T04:25:57.556Z,97265.22
2022-08-05T04:28:30.831Z,97268.97
2022-08-05T04:31:00.976Z,97266.41
2022-08-05T04:34:19.200Z,97264.78
2022-08-05T04:36:46.272Z,97262.72
2022-08-05T04:39:09.453Z,97260.69
2022-08-05T04:41:39.708Z,97263.38
2022-08-05T04:44:09.970Z,97256.78
2022-08-05T04:46:39.166Z,97257.56
2022-08-05T04:49:12.178Z,97264.03
2022-08-05T04:51:45.086Z,97263.16
2022-08-05T04:54:14.919Z,97265.06
2022-08-05T04:56:43.678Z,97266.06
2022-08-05T04:59:22.273Z,97266.69
2022-08-05T05:02:35.418Z,97263.19
2022-08-05T05:04:50.517Z,97252.69
2022-08-05T05:07:29.497Z,97257.69
2022-08-05T05:10:04.336Z,97260.16
2022-08-05T05:12:32.657Z,97263.69
2022-08-05T05:15:03.647Z,97266.59
2022-08-05T05:17:56.460Z,97268.38
2022-08-05T05:20:28.737Z,97265.69
2022-08-05T05:22:59.053Z,97265.91
2022-08-05T05:25:40.449Z,97255.50
2022-08-05T05:28:09.660Z,97255.41
2022-08-05T05:30:38.425Z,97247.78
2022-08-05T05:33:16.256Z,97251.69
2022-08-05T05:35:46.932Z,97252.94
2022-08-05T05:38:22.367Z,97258.41
2022-08-05T05:40:56.152Z,97258.59
2022-08-05T05:43:54.151Z,97255.19
2022-08-05T05:46:17.530Z,97249.28
2022-08-05T05:48:47.853Z,97254.72
2022-08-05T05:51:21.408Z,97253.41
2022-08-05T05:53:57.902Z,97247.75
2022-08-05T05:56:32.453Z,97253.97
2022-08-05T05:59:03.072Z,97248.69
2022-08-05T06:01:37.566Z,97251.09
2022-08-05T06:04:07.659Z,97256.13
2022-08-05T06:06:36.282Z,97247.69
2022-08-05T06:09:07.505Z,97243.06
2022-08-05T06:11:39.392Z,97253.16
2022-08-05T06:14:07.892Z,97245.28
2022-08-05T06:16:37.113Z,97256.63
2022-08-05T06:19:07.955Z,97254.16
2022-08-05T06:21:38.724Z,97247.88
2022-08-05T06:24:12.585Z,97248.22
2022-08-05T06:26:51.624Z,97249.44
2022-08-05T06:29:42.911Z,97242.06
2022-08-05T06:32:25.393Z,97245.38
2022-08-05T06:34:56.322Z,97243.75
2022-08-05T06:37:57.977Z,97247.53
2022-08-05T06:40:21.205Z,97246.81
2022-08-05T06:42:52.019Z,97247.53
2022-08-05T06:46:02.983Z,97248.16
2022-08-05T06:48:36.147Z,97234.44
2022-08-05T06:51:00.047Z,97240.28
2022-08-05T06:53:29.472Z,97242.50
2022-08-05T06:56:00.669Z,97244.72
2022-08-05T06:58:35.448Z,97245.13
2022-08-05T07:01:06.974Z,97246.72
2022-08-05T07:03:36.021Z,97243.22
2022-08-05T07:06:14.351Z,97237.22
2022-08-05T07:08:48.020Z,97239.31
2022-08-05T07:11:22.486Z,97249.00
2022-08-05T07:14:20.192Z,97246.72
2022-08-05T07:18:08.590Z,97243.53
2022-08-05T07:22:30.202Z,97238.25
2022-08-05T07:25:22.394Z,97236.41
2022-08-05T07:27:58.271Z,97233.97
2022-08-05T07:30:33.347Z,97235.28
2022-08-05T07:33:05.383Z,97223.00
2022-08-05T07:36:04.202Z,97221.56
2022-08-05T07:38:33.562Z,97228.03
2022-08-05T07:42:07.480Z,97221.34
2022-08-05T07:43:56.928Z,97223.88
2022-08-05T07:46:26.629Z,97224.84
2022-08-05T07:49:01.877Z,97221.94
2022-08-05T07:51:40.566Z,97226.03
2022-08-05T07:54:10.553Z,97229.53
2022-08-05T07:57:13.850Z,97222.22
2022-08-05T07:59:38.839Z,97227.44
2022-08-05T08:02:15.916Z,97225.94
2022-08-05T08:04:48.198Z,97220.03
2022-08-05T08:07:22.211Z,97226.75
2022-08-05T08:09:53.098Z,97226.91
2022-08-05T08:12:37.350Z,97224.72
2022-08-05T08:15:15.842Z,97225.72
2022-08-05T08:17:50.552Z,97225.88
2022-08-05T08:20:45.433Z,97220.81
2022-08-05T08:24:00.120Z,97227.50
2022-08-05T08:26:02.731Z,97227.88
2022-08-05T08:28:36.275Z,97227.50
2022-08-05T08:31:07.782Z,97224.34
2022-08-05T08:33:37.850Z,97221.38
2022-08-05T08:38:57.037Z,97212.09
2022-08-05T08:41:51.168Z,97220.78
2022-08-05T08:45:24.309Z,97214.88
2022-08-05T08:47:47.681Z,97212.69
2022-08-05T08:50:22.802Z,97217.75
2022-08-05T08:52:52.960Z,97211.22
2022-08-05T08:56:01.528Z,97215.50
2022-08-05T08:58:12.960Z,97207.97
2022-08-05T09:00:42.711Z,97208.88
2022-08-05T09:03:12.466Z,97203.09
2022-08-05T09:06:09.287Z,97200.78
2022-08-05T09:08:32.997Z,97207.69
2022-08-05T09:11:01.217Z,97205.88
2022-08-05T09:13:31.652Z,97204.56
2022-08-05T09:16:01.189Z,97203.22
2022-08-05T09:18:32.085Z,97201.03
2022-08-05T09:21:00.423Z,97200.16
2022-08-05T09:23:37.344Z,97197.06
2022-08-05T09:26:20.737Z,97188.94
2022-08-05T09:28:50.587Z,97191.41
2022-08-05T09:31:44.208Z,97183.31
2022-08-05T09:34:10.290Z,97184.34
2022-08-05T09:36:54.621Z,97182.69
2022-08-05T09:39:41.880Z,97186.16
2022-08-05T09:42:20.223Z,97173.53
2022-08-05T09:44:56.476Z,97176.06
2022-08-05T09:47:48.480Z,97170.91
2022-08-05T09:50:37.577Z,97181.03
2022-08-05T09:53:07.301Z,97173.56
2022-08-05T09:55:56.369Z,97174.22
2022-08-05T09:58:26.529Z,97176.66
2022-08-05T10:01:02.162Z,97176.81
2022-08-05T10:03:59.154Z,97162.13
2022-08-05T10:06:31.110Z,97170.59
2022-08-05T10:09:25.087Z,97160.91
2022-08-05T10:11:57.177Z,97164.91
2022-08-05T10:14:30.231Z,97163.09
2022-08-05T10:17:36.878Z,97159.47
2022-08-05T10:20:04.361Z,97151.03
2022-08-05T10:22:48.687Z,97153.38
2022-08-05T10:25:20.494Z,97151.59
2022-08-05T10:28:09.709Z,97162.63
2022-08-05T10:32:49.008Z,97147.97
2022-08-05T10:33:29.599Z,97144.69
2022-08-05T10:36:05.376Z,97146.91
2022-08-05T10:38:37.075Z,97146.34
2022-08-05T10:41:13.827Z,97136.88
2022-08-05T10:43:50.794Z,97136.47
2022-08-05T10:46:23.900Z,97146.72
2022-08-05T10:49:00.531Z,97141.16
2022-08-05T10:51:57.761Z,97138.84
2022-08-05T10:54:56.030Z,97139.41
2022-08-05T10:57:32.044Z,97145.28
2022-08-05T11:00:18.524Z,97136.00
2022-08-05T11:03:24.893Z,97136.22
2022-08-05T11:06:15.407Z,97132.47
2022-08-05T11:09:13.099Z,97132.66
2022-08-05T11:11:53.210Z,97121.91
2022-08-05T11:15:01.346Z,97132.19
2022-08-05T11:17:58.238Z,97121.16
2022-08-05T11:20:41.449Z,97126.13
2022-08-05T11:23:33.538Z,97126.44
2022-08-05T11:26:28.927Z,97123.88
2022-08-05T11:29:12.310Z,97130.56
2022-08-05T11:31:57.937Z,97133.41
2022-08-05T11:34:50.832Z,97128.19
2022-08-05T11:38:29.937Z,97125.31
2022-08-05T11:41:12.747Z,97121.94
2022-08-05T11:44:06.656Z,97115.00
2022-08-05T11:47:10.256Z,97122.81
2022-08-05T11:49:28.692Z,97124.66
2022-08-05T11:51:57.888Z,97119.22
2022-08-05T11:54:33.193Z,97121.47
2022-08-05T11:57:07.908Z,97114.31
2022-08-05T11:59:41.417Z,97113.81
2022-08-05T12:02:30.666Z,97115.25
2022-08-05T12:05:07.219Z,97113.78
2022-08-05T12:08:07.860Z,97112.34
2022-08-05T12:10:38.424Z,97109.38
2022-08-05T12:13:27.935Z,97107.56
2022-08-05T12:16:15.603Z,97106.50
2022-08-05T12:18:52.300Z,97100.97
2022-08-05T12:21:24.029Z,97099.41
2022-08-05T12:24:00.090Z,97107.75
2022-08-05T12:26:35.578Z,97099.25
2022-08-05T12:29:09.534Z,97106.44
2022-08-05T12:31:48.318Z,97102.34
2022-08-05T12:34:24.057Z,97093.03
2022-08-05T12:36:54.620Z,97090.69
2022-08-05T12:39:28.026Z,97095.78
2022-08-05T12:42:02.828Z,97086.63
2022-08-05T12:44:34.033Z,97079.00
2022-08-05T12:47:03.899Z,97090.28
2022-08-05T12:50:03.896Z,97084.69
2022-08-05T12:52:42.244Z,97078.41
2022-08-05T12:55:25.452Z,97074.84
2022-08-05T12:58:39.087Z,97070.31
2022-08-05T13:02:02.673Z,97071.66
2022-08-05T13:03:39.220Z,97055.19
2022-08-05T13:06:16.623Z,97064.56
2022-08-05T13:08:52.227Z,97054.78
2022-08-05T13:12:01.313Z,97058.25
2022-08-05T13:14:19.784Z,97055.50
2022-08-05T13:16:53.913Z,97050.22
2022-08-05T13:19:25.993Z,97048.38
2022-08-05T13:21:56.759Z,97049.00
2022-08-05T13:24:27.680Z,97052.63
2022-08-05T13:27:17.131Z,97035.81
2022-08-05T13:30:01.301Z,97037.81
2022-08-05T13:32:42.281Z,97038.44
2022-08-05T13:35:15.122Z,97031.59
2022-08-05T13:37:55.671Z,97022.59
2022-08-05T13:40:36.889Z,97024.34
2022-08-05T13:43:12.453Z,97018.97
2022-08-05T13:45:43.037Z,97013.47
2022-08-05T13:48:58.804Z,97009.69
2022-08-05T13:51:06.578Z,97008.31
2022-08-05T13:53:47.885Z,97006.22
2022-08-05T13:56:18.909Z,97004.47
2022-08-05T13:58:51.328Z,97002.63
2022-08-05T14:01:27.364Z,96998.16
2022-08-05T14:04:26.485Z,97000.75
2022-08-05T14:06:58.615Z,96997.94
2022-08-05T14:09:46.108Z,97000.31
2022-08-05T14:12:17.550Z,97005.34
2022-08-05T14:14:46.265Z,97018.34
2022-08-05T14:17:16.987Z,97016.47
2022-08-05T14:19:55.094Z,97008.63
2022-08-05T14:22:24.463Z,97009.16
2022-08-05T14:25:00.271Z,97010.69
2022-08-05T14:27:28.904Z,97007.19
2022-08-05T14:29:57.764Z,97012.03
2022-08-05T14:32:27.971Z,97009.38
2022-08-05T14:34:56.871Z,97006.59
2022-08-05T14:37:45.589Z,97004.50
2022-08-05T14:40:17.028Z,97011.56
2022-08-05T14:42:47.388Z,97014.38
2022-08-05T14:45:17.343Z,97009.88
2022-08-05T14:48:03.603Z,97004.75
2022-08-05T14:50:36.085Z,97007.66
2022-08-05T14:53:09.036Z,97021.19
2022-08-05T14:55:40.075Z,97026.84
2022-08-05T14:58:11.307Z,97028.34
2022-08-05T15:00:58.742Z,97027.25
2022-08-05T15:03:33.990Z,97028.34
2022-08-05T15:06:15.267Z,97037.53
2022-08-05T15:09:01.173Z,97026.63
2022-08-05T15:11:52.248Z,97029.22
2022-08-05T15:14:34.457Z,97034.22
2022-08-05T15:17:44.859Z,97039.53
2022-08-05T15:19:58.585Z,97044.03
2022-08-05T15:22:28.169Z,97043.25
2022-08-05T15:24:58.464Z,97043.47
2022-08-05T15:27:32.242Z,97047.38
2022-08-05T15:30:05.745Z,97048.53
2022-08-05T15:32:34.079Z,97052.06
2022-08-05T15:35:04.162Z,97053.66
2022-08-05T15:38:31.780Z,97059.25
2022-08-05T15:41:01.541Z,97059.44
2022-08-05T15:43:20.506Z,97050.34
2022-08-05T15:46:00.256Z,97048.53
2022-08-05T15:48:30.718Z,97051.16
2022-08-05T15:51:01.058Z,97056.28
2022-08-05T15:53:38.364Z,97055.06
2022-08-05T15:56:19.794Z,97058.31
2022-08-05T15:58:50.091Z,97048.53
2022-08-05T16:01:19.986Z,97048.72
2022-08-05T16:03:50.467Z,97045.38
2022-08-05T16:06:20.901Z,97043.38
2022-08-05T16:08:55.221Z,97047.66
2022-08-05T16:11:40.076Z,97048.25
2022-08-05T16:14:17.075Z,97043.25
2022-08-05T16:16:47.008Z,97054.03
2022-08-05T16:19:25.253Z,97048.41
2022-08-05T16:22:04.895Z,97054.78
2022-08-05T16:24:40.186Z,97056.06
2022-08-05T16:27:15.999Z,97052.22
2022-08-05T16:29:50.867Z,97054.31
2022-08-05T16:32:23.662Z,97045.56
2022-08-05T16:34:57.688Z,97050.22
2022-08-05T16:38:16.264Z,97052.66
2022-08-05T16:40:28.802Z,97047.91
2022-08-05T16:42:58.246Z,97062.78
2022-08-05T16:46:04.094Z,97064.91
2022-08-05T16:48:25.560Z,97063.78
2022-08-05T16:50:54.744Z,97065.88
2022-08-05T16:53:31.818Z,97066.84
2022-08-05T16:56:01.015Z,97067.28
2022-08-05T16:58:30.294Z,97073.06
2022-08-05T17:01:00.635Z,97075.66
2022-08-05T17:03:29.064Z,97080.38
2022-08-05T17:06:00.551Z,97075.81
2022-08-05T17:08:36.409Z,97077.81
2022-08-05T17:11:18.437Z,97077.31
2022-08-05T17:13:46.999Z,97080.31
2022-08-05T17:16:33.324Z,97076.41
2022-08-05T17:19:02.097Z,97086.75
2022-08-05T17:21:36.314Z,97086.16
2022-08-05T17:24:13.736Z,97082.97
2022-08-05T17:26:55.560Z,97086.00
2022-08-05T17:29:33.485Z,97090.03
2022-08-05T17:32:03.868Z,97098.09
2022-08-05T17:34:32.912Z,97102.66
2022-08-05T17:37:04.532Z,97109.53
2022-08-05T17:39:34.161Z,97108.16
2022-08-05T17:42:19.657Z,97106.94
2022-08-05T17:44:50.889Z,97109.84
2022-08-05T17:47:22.562Z,97108.00
2022-08-05T17:50:03.560Z,97101.75
2022-08-05T17:52:32.895Z,97105.63
2022-08-05T17:55:01.243Z,97099.44
2022-08-05T17:57:31.483Z,97096.84
2022-08-05T18:00:03.349Z,97107.16
2022-08-05T18:02:34.724Z,97107.13
2022-08-05T18:05:07.715Z,97103.72
2022-08-05T18:07:41.551Z,97102.22
2022-08-05T18:10:14.091Z,97100.47
2022-08-05T18:12:49.598Z,97105.00
2022-08-05T18:15:17.820Z,97101.25
2022-08-05T18:17:59.767Z,97098.91
2022-08-05T18:20:32.605Z,97091.56
2022-08-05T18:23:11.527Z,97096.41
2022-08-05T18:25:44.817Z,97091.78
2022-08-05T18:28:16.497Z,97080.81
2022-08-05T18:30:45.738Z,97087.47
2022-08-05T18:33:23.202Z,97084.34
2022-08-05T18:36:03.670Z,97087.63
2022-08-05T18:38:36.262Z,97073.16
2022-08-05T18:41:57.176Z,97076.31
2022-08-05T18:43:53.475Z,97077.13
2022-08-05T18:46:22.367Z,97075.09
2022-08-05T18:48:56.198Z,97079.28
2022-08-05T18:52:06.091Z,97080.41
2022-08-05T18:54:32.115Z,97069.63
2022-08-05T18:57:03.923Z,97084.56
2022-08-05T18:59:44.037Z,97077.38
2022-08-05T19:02:27.802Z,97088.47
2022-08-05T19:05:02.500Z,97098.28
2022-08-05T19:07:50.767Z,97115.84
2022-08-05T19:10:26.466Z,97119.72
2022-08-05T19:12:56.979Z,97119.56
2022-08-05T19:15:59.761Z,97124.38
2022-08-05T19:18:22.053Z,97125.78
2022-08-05T19:20:53.525Z,97134.66
2022-08-05T19:24:03.878Z,97150.47
2022-08-05T19:26:11.141Z,97149.84
2022-08-05T19:28:43.149Z,97153.53
2022-08-05T19:31:18.088Z,97150.31
2022-08-05T19:33:56.878Z,97169.34
2022-08-05T19:36:29.412Z,97175.41
2022-08-05T19:39:01.016Z,97175.53
2022-08-05T19:41:58.541Z,97171.34
2022-08-05T19:44:19.052Z,97181.97
2022-08-05T19:46:50.266Z,97182.91
2022-08-05T19:49:18.989Z,97189.16
2022-08-05T19:52:13.241Z,97189.47
2022-08-05T19:54:37.661Z,97189.72
2022-08-05T19:57:09.491Z,97189.09
2022-08-05T19:59:54.966Z,97194.59
2022-08-05T20:02:31.626Z,97191.38
2022-08-05T20:05:00.385Z,97190.69
2022-08-05T20:07:48.026Z,97191.84
2022-08-05T20:10:22.445Z,97186.16
2022-08-05T20:12:53.262Z,97198.63
2022-08-05T20:15:23.302Z,97190.97
2022-08-05T20:18:32.767Z,97195.28
2022-08-05T20:21:00.221Z,97194.47
2022-08-05T20:23:40.342Z,97184.13
2022-08-05T20:26:19.298Z,97187.09
2022-08-05T20:28:48.928Z,97190.09
2022-08-05T20:31:18.061Z,97191.22
2022-08-05T20:33:51.980Z,97192.66
2022-08-05T20:36:21.694Z,97190.41
2022-08-05T20:38:53.329Z,97191.69
2022-08-05T20:41:27.104Z,97194.06
2022-08-05T20:44:16.900Z,97186.19
2022-08-05T20:46:46.629Z,97189.16
2022-08-05T20:49:18.393Z,97188.13
2022-08-05T20:51:53.500Z,97183.38
2022-08-05T20:54:25.349Z,97188.19
2022-08-05T20:56:53.720Z,97187.09
2022-08-05T20:59:26.474Z,97190.19
2022-08-05T21:01:58.032Z,97188.22
2022-08-05T21:04:26.989Z,97197.16
2022-08-05T21:06:55.916Z,97200.69
2022-08-05T21:09:25.760Z,97203.81
2022-08-05T21:12:10.695Z,97202.25
2022-08-05T21:14:39.894Z,97196.03
2022-08-05T21:17:08.045Z,97195.59
2022-08-05T21:19:47.107Z,97183.13
2022-08-05T21:22:18.338Z,97185.34
2022-08-05T21:24:49.034Z,97185.34
2022-08-05T21:27:20.673Z,97188.16
2022-08-05T21:29:54.142Z,97188.47
2022-08-05T21:32:26.554Z,97197.72
2022-08-05T21:34:55.908Z,97194.28
2022-08-05T21:37:41.403Z,97196.94
2022-08-05T21:40:14.028Z,97196.94
2022-08-05T21:42:45.107Z,97203.50
2022-08-05T21:45:23.995Z,97201.94
2022-08-05T21:47:58.179Z,97200.09
2022-08-05T21:50:26.826Z,97205.59
2022-08-05T21:52:58.872Z,97201.22
2022-08-05T21:56:01.562Z,97212.19
2022-08-05T21:58:30.839Z,97206.69
2022-08-05T22:01:01.435Z,97206.16
2022-08-05T22:03:52.580Z,97212.34
2022-08-05T22:06:22.338Z,97224.34
2022-08-05T22:08:52.472Z,97224.38
2022-08-05T22:11:34.411Z,97216.13
2022-08-05T22:14:18.470Z,97222.50
2022-08-05T22:16:57.048Z,97219.03
2022-08-05T22:20:01.701Z,97220.88
2022-08-05T22:22:16.734Z,97218.22
2022-08-05T22:25:31.235Z,97215.88
2022-08-05T22:28:13.654Z,97216.97
2022-08-05T22:30:55.643Z,97214.97
2022-08-05T22:33:56.787Z,97214.59
2022-08-05T22:36:15.335Z,97209.28
2022-08-05T22:38:47.981Z,97216.03
2022-08-05T22:42:04.282Z,97214.97
2022-08-05T22:44:08.635Z,97209.44
2022-08-05T22:46:40.206Z,97214.31
2022-08-05T22:49:23.643Z,97214.59
2022-08-05T22:52:05.049Z,97212.22
2022-08-05T22:54:36.709Z,97209.84
2022-08-05T22:57:05.651Z,97208.16
2022-08-05T22:59:42.980Z,97212.13
2022-08-05T23:02:17.632Z,97207.50
2022-08-05T23:04:51.912Z,97210.19
2022-08-05T23:07:21.820Z,97211.44
2022-08-05T23:09:58.282Z,97214.59
2022-08-05T23:12:32.851Z,97217.97
2022-08-05T23:15:04.015Z,97207.78
2022-08-05T23:18:01.476Z,97211.22
2022-08-05T23:20:26.380Z,97202.38
2022-08-05T23:22:56.260Z,97207.88
2022-08-05T23:25:53.250Z,97210.22
2022-08-05T23:28:15.986Z,97208.09
2022-08-05T23:30:53.458Z,97206.88
2022-08-05T23:34:02.909Z,97203.75
2022-08-05T23:36:13.847Z,97204.06
2022-08-05T23:38:43.515Z,97205.84
2022-08-05T23:41:12.794Z,97209.88
2022-08-05T23:44:06.083Z,97221.13
2022-08-05T23:46:31.583Z,97216.75
2022-08-05T23:49:02.127Z,97210.13
2022-08-05T23:52:01.234Z,97214.63
2022-08-05T23:54:38.197Z,97213.19
2022-08-05T23:57:07.676Z,97213.00
